createdAt,value
2022-09-04T00:02:46.320Z,32.67
2022-09-04T00:05:41.241Z,33.00
2022-09-04T00:08:50.105Z,33.30
2022-09-04T00:11:47.660Z,34.73
2022-09-04T00:14:41.839Z,33.67
2022-09-04T00:17:35.631Z,34.07
2022-09-04T00:20:35.505Z,34.17
2022-09-04T00:23:31.651Z,33.97
2022-09-04T00:26:38.464Z,33.97
2022-09-04T00:29:35.041Z,34.77
2022-09-04T00:32:39.753Z,35.03
2022-09-04T00:35:32.339Z,34.70
2022-09-04T00:38:38.909Z,36.23
2022-09-04T00:41:31.843Z,36.37
2022-09-04T00:44:48.520Z,36.23
2022-09-04T00:47:58.716Z,37.97
2022-09-04T00:51:27.310Z,37.80
2022-09-04T00:54:29.979Z,39.40
2022-09-04T00:57:52.924Z,38.63
2022-09-04T01:00:42.752Z,39.10
2022-09-04T01:04:09.091Z,39.13
2022-09-04T01:07:09.216Z,39.93
2022-09-04T01:10:09.596Z,39.93
2022-09-04T01:13:04.340Z,40.43
2022-09-04T01:15:59.432Z,41.00
2022-09-04T01:18:56.448Z,40.63
2022-09-04T01:22:04.271Z,41.60
2022-09-04T01:25:22.689Z,41.77
2022-09-04T01:28:20.524Z,42.00
2022-09-04T01:31:19.540Z,42.40
2022-09-04T01:34:23.822Z,41.30
2022-09-04T01:37:30.166Z,42.43
2022-09-04T01:40:35.258Z,43.60
2022-09-04T01:43:26.518Z,43.63
2022-09-04T01:46:40.067Z,44.47
2022-09-04T01:49:35.352Z,44.77
2022-09-04T01:52:37.928Z,46.43
2022-09-04T01:55:36.888Z,46.67
2022-09-04T01:58:35.424Z,44.20
2022-09-04T02:01:33.065Z,45.47
2022-09-04T02:04:28.583Z,44.87
2022-09-04T02:07:29.695Z,45.20
2022-09-04T02:10:31.485Z,45.47
2022-09-04T02:13:24.152Z,45.00
2022-09-04T02:16:22.258Z,44.90
2022-09-04T02:19:25.816Z,43.37
2022-09-04T02:22:25.954Z,45.17
2022-09-04T02:25:24.052Z,45.47
2022-09-04T02:28:25.336Z,45.43
2022-09-04T02:31:29.030Z,45.07
2022-09-04T02:34:26.721Z,45.90
2022-09-04T02:37:23.438Z,46.00
2022-09-04T02:40:19.967Z,46.27
2022-09-04T02:43:22.953Z,45.57
2022-09-04T02:46:19.687Z,45.03
2022-09-04T02:49:14.407Z,44.73
2022-09-04T02:52:13.944Z,46.73
2022-09-04T02:55:13.366Z,45.47
2022-09-04T02:58:18.157Z,46.90
2022-09-04T03:01:13.328Z,48.00
2022-09-04T03:04:10.126Z,49.40
2022-09-04T03:07:04.726Z,47.67
2022-09-04T03:10:00.631Z,49.13
2022-09-04T03:12:52.740Z,49.57
2022-09-04T03:15:46.213Z,48.67
2022-09-04T03:18:40.982Z,51.57
2022-09-04T03:21:36.851Z,49.23
2022-09-04T03:24:34.202Z,51.87
2022-09-04T03:27:23.186Z,51.83
2022-09-04T03:30:13.365Z,53.10
2022-09-04T03:33:08.647Z,53.50
2022-09-04T03:36:03.600Z,54.10
2022-09-04T03:39:02.824Z,53.33
2022-09-04T03:41:59.832Z,53.40
2022-09-04T03:45:00.674Z,52.80
2022-09-04T03:48:05.785Z,53.03
2022-09-04T03:50:59.242Z,52.33
2022-09-04T03:54:02.061Z,52.43
2022-09-04T03:57:12.010Z,53.00
2022-09-04T04:00:08.813Z,53.07
2022-09-04T04:03:14.317Z,53.63
2022-09-04T04:06:13.868Z,52.50
2022-09-04T04:09:37.542Z,54.67
2022-09-04T04:12:51.924Z,53.53
2022-09-04T04:15:58.387Z,53.03
2022-09-04T04:19:13.024Z,53.90
2022-09-04T04:22:24.241Z,53.23
2022-09-04T04:25:41.374Z,52.50
2022-09-04T04:28:59.337Z,53.53
2022-09-04T04:32:14.359Z,53.37
2022-09-04T04:35:14.229Z,53.53
2022-09-04T04:38:14.585Z,52.83
2022-09-04T04:41:53.528Z,52.77
2022-09-04T04:45:28.124Z,52.77
2022-09-04T04:48:55.146Z,52.30
2022-09-04T04:52:05.927Z,51.83
2022-09-04T04:55:06.688Z,51.57
2022-09-04T04:58:27.614Z,49.40
2022-09-04T05:01:26.767Z,49.00
2022-09-04T05:04:23.253Z,48.13
2022-09-04T05:07:18.128Z,47.43
2022-09-04T05:10:17.805Z,45.07
2022-09-04T05:13:17.416Z,44.07
2022-09-04T05:16:19.099Z,43.23
2022-09-04T05:19:17.431Z,41.37
2022-09-04T05:22:13.793Z,39.33
2022-09-04T05:25:12.031Z,38.03
2022-09-04T05:28:12.212Z,35.83
2022-09-04T05:31:11.773Z,35.13
2022-09-04T05:34:08.707Z,33.53
2022-09-04T05:37:09.604Z,31.53
2022-09-04T05:40:04.338Z,30.27
2022-09-04T05:43:09.085Z,27.77
2022-09-04T05:46:07.013Z,26.00
2022-09-04T05:49:04.127Z,24.90
2022-09-04T05:52:12.267Z,23.90
2022-09-04T05:55:21.386Z,23.43
2022-09-04T05:58:34.935Z,21.77
2022-09-04T06:01:42.414Z,21.03
2022-09-04T06:05:00.951Z,21.17
2022-09-04T06:08:00.814Z,21.27
2022-09-04T06:11:02.319Z,20.70
2022-09-04T06:14:05.345Z,20.83
2022-09-04T06:17:10.388Z,21.00
2022-09-04T06:20:15.753Z,20.83
2022-09-04T06:23:40.895Z,20.90
2022-09-04T06:26:46.844Z,21.07
2022-09-04T06:30:01.411Z,23.17
2022-09-04T06:33:19.504Z,23.67
2022-09-04T06:36:29.929Z,25.63
2022-09-04T06:39:38.971Z,20.80
2022-09-04T06:42:37.559Z,20.23
2022-09-04T06:45:37.907Z,20.03
2022-09-04T06:48:40.646Z,20.43
2022-09-04T06:51:42.975Z,19.93
2022-09-04T06:54:46.408Z,19.93
2022-09-04T06:58:20.213Z,18.80
2022-09-04T07:01:11.923Z,18.63
2022-09-04T07:04:14.203Z,18.90
2022-09-04T07:07:13.789Z,19.13
2022-09-04T07:10:10.295Z,19.63
2022-09-04T07:13:31.775Z,18.80
2022-09-04T07:16:39.198Z,19.03
2022-09-04T07:20:11.597Z,19.40
2022-09-04T07:23:23.498Z,19.57
2022-09-04T07:26:21.498Z,19.47
2022-09-04T07:29:34.163Z,19.13
2022-09-04T07:32:27.673Z,19.00
2022-09-04T07:35:22.285Z,18.47
2022-09-04T07:38:21.036Z,18.17
2022-09-04T07:41:17.701Z,17.80
2022-09-04T07:44:10.734Z,18.33
2022-09-04T07:47:12.726Z,17.87
2022-09-04T07:50:10.393Z,17.97
2022-09-04T07:53:13.779Z,17.40
2022-09-04T07:56:07.744Z,16.80
2022-09-04T07:59:25.302Z,17.20
2022-09-04T08:02:34.429Z,16.45
2022-09-04T08:05:28.840Z,16.60
2022-09-04T08:08:45.525Z,15.57
2022-09-04T08:11:53.867Z,15.43
2022-09-04T08:14:54.179Z,15.70
2022-09-04T08:18:14.435Z,15.88
2022-09-04T08:21:12.639Z,16.00
2022-09-04T08:24:54.725Z,15.65
2022-09-04T08:28:02.520Z,15.05
2022-09-04T08:30:56.127Z,14.35
2022-09-04T08:34:14.171Z,13.70
2022-09-04T08:37:17.422Z,12.55
2022-09-04T08:40:50.073Z,11.90
2022-09-04T08:44:12.641Z,12.10
2022-09-04T08:47:41.306Z,11.90
2022-09-04T08:51:01.856Z,10.50
2022-09-04T08:54:36.273Z,10.02
2022-09-04T08:57:56.733Z,10.30
2022-09-04T09:01:05.553Z,10.73
2022-09-04T09:04:18.621Z,10.00
2022-09-04T09:07:42.785Z,9.10
2022-09-04T09:11:15.536Z,9.52
2022-09-04T09:14:34.670Z,8.82
2022-09-04T09:17:38.539Z,8.32
2022-09-04T09:20:32.805Z,8.77
2022-09-04T09:23:23.901Z,8.27
2022-09-04T09:26:24.694Z,8.15
2022-09-04T09:29:40.829Z,7.53
2022-09-04T09:33:17.065Z,7.20
2022-09-04T09:36:30.045Z,8.15
2022-09-04T09:39:43.364Z,7.13
2022-09-04T09:43:01.499Z,7.40
2022-09-04T09:46:25.993Z,7.50
2022-09-04T09:49:50.674Z,7.47
2022-09-04T09:53:14.629Z,7.20
2022-09-04T09:56:31.863Z,7.40
2022-09-04T09:59:39.477Z,6.80
2022-09-04T10:03:07.337Z,6.50
2022-09-04T10:06:34.813Z,6.60
2022-09-04T10:10:03.859Z,5.35
2022-09-04T10:13:20.596Z,5.65
2022-09-04T10:16:36.549Z,6.25
2022-09-04T10:19:43.236Z,6.45
2022-09-04T10:22:57.318Z,6.00
2022-09-04T10:26:26.956Z,5.43
2022-09-04T10:29:38.424Z,6.13
2022-09-04T10:33:11.649Z,6.32
2022-09-04T10:36:19.676Z,5.93
2022-09-04T10:39:40.919Z,6.05
2022-09-04T10:42:44.358Z,6.10
2022-09-04T10:45:38.995Z,6.43
2022-09-04T10:49:07.340Z,5.80
2022-09-04T10:52:35.280Z,4.88
2022-09-04T10:55:39.106Z,5.88
2022-09-04T10:58:41.654Z,5.97
2022-09-04T11:01:57.334Z,6.07
2022-09-04T11:05:07.124Z,5.70
2022-09-04T11:08:13.716Z,5.95
2022-09-04T11:11:20.340Z,5.88
2022-09-04T11:14:30.411Z,6.25
2022-09-04T11:17:51.777Z,5.13
2022-09-04T11:21:35.504Z,5.18
2022-09-04T11:25:00.016Z,4.70
2022-09-04T11:28:41.239Z,4.70
2022-09-04T11:31:49.550Z,4.63
2022-09-04T11:35:32.275Z,4.72
2022-09-04T11:38:44.485Z,4.70
2022-09-04T11:41:56.610Z,4.20
2022-09-04T11:45:04.341Z,4.78
2022-09-04T11:48:25.610Z,4.50
2022-09-04T11:51:40.637Z,6.03
2022-09-04T11:54:48.361Z,4.13
2022-09-04T11:57:48.018Z,4.53
2022-09-04T12:00:51.594Z,4.40
2022-09-04T12:04:23.840Z,4.40
2022-09-04T12:07:42.629Z,4.38
2022-09-04T12:10:44.420Z,3.80
2022-09-04T12:13:54.240Z,4.80
2022-09-04T12:17:25.733Z,5.03
2022-09-04T12:20:42.711Z,4.30
2022-09-04T12:23:49.717Z,4.15
2022-09-04T12:26:59.966Z,5.25
2022-09-04T12:30:06.637Z,4.20
2022-09-04T12:33:37.060Z,3.95
2022-09-04T12:36:54.280Z,4.10
2022-09-04T12:40:10.326Z,3.90
2022-09-04T12:43:07.033Z,4.50
2022-09-04T12:46:10.926Z,4.07
2022-09-04T12:49:19.041Z,4.13
2022-09-04T12:52:25.661Z,4.10
2022-09-04T12:55:23.271Z,4.22
2022-09-04T12:58:27.235Z,4.15
2022-09-04T13:01:32.029Z,4.57
2022-09-04T13:04:27.742Z,5.28
2022-09-04T13:07:32.428Z,4.10
2022-09-04T13:10:32.968Z,4.50
2022-09-04T13:13:29.966Z,4.53
2022-09-04T13:16:24.012Z,4.78
2022-09-04T13:19:23.756Z,4.40
2022-09-04T13:22:22.973Z,4.25
2022-09-04T13:25:25.055Z,5.35
2022-09-04T13:28:21.042Z,4.50
2022-09-04T13:31:33.539Z,4.70
2022-09-04T13:34:34.111Z,4.53
2022-09-04T13:37:27.595Z,4.32
2022-09-04T13:40:29.637Z,4.20
2022-09-04T13:43:41.256Z,4.40
2022-09-04T13:46:33.875Z,3.80
2022-09-04T13:49:30.560Z,4.82
2022-09-04T13:52:28.876Z,4.10
2022-09-04T13:55:23.613Z,4.80
2022-09-04T13:58:20.212Z,5.50
2022-09-04T14:01:15.443Z,4.30
2022-09-04T14:04:08.662Z,3.90
2022-09-04T14:07:02.465Z,5.00
2022-09-04T14:09:53.810Z,5.13
2022-09-04T14:13:04.282Z,4.15
2022-09-04T14:16:04.131Z,4.63
2022-09-04T14:19:16.011Z,4.22
2022-09-04T14:22:36.026Z,4.95
2022-09-04T14:25:34.932Z,10.13
2022-09-04T14:28:35.437Z,5.18
2022-09-04T14:31:35.345Z,4.60
2022-09-04T14:34:48.438Z,5.75
2022-09-04T14:37:57.080Z,6.30
2022-09-04T14:40:56.705Z,6.20
2022-09-04T14:44:03.349Z,7.25
2022-09-04T14:46:59.533Z,7.13
2022-09-04T14:49:50.955Z,7.80
2022-09-04T14:52:43.435Z,6.93
2022-09-04T14:55:34.048Z,7.28
2022-09-04T14:58:29.045Z,8.07
2022-09-04T15:01:24.036Z,8.15
2022-09-04T15:04:21.537Z,8.02
2022-09-04T15:07:30.858Z,9.15
2022-09-04T15:10:24.593Z,8.68
2022-09-04T15:13:36.858Z,9.27
2022-09-04T15:16:42.951Z,8.48
2022-09-04T15:19:48.758Z,9.23
2022-09-04T15:22:46.989Z,9.60
2022-09-04T15:25:59.190Z,11.32
2022-09-04T15:28:51.732Z,11.00
2022-09-04T15:31:43.449Z,12.45
2022-09-04T15:34:32.605Z,13.02
2022-09-04T15:37:26.921Z,13.75
2022-09-04T15:40:23.676Z,14.48
2022-09-04T15:43:24.129Z,15.35
2022-09-04T15:46:23.142Z,15.95
2022-09-04T15:49:32.010Z,16.15
2022-09-04T15:52:31.898Z,16.30
2022-09-04T15:55:25.832Z,18.15
2022-09-04T15:58:19.865Z,17.20
2022-09-04T16:01:17.425Z,18.52
2022-09-04T16:04:14.487Z,18.00
2022-09-04T16:07:34.274Z,18.02
2022-09-04T16:10:36.315Z,19.65
2022-09-04T16:13:44.806Z,20.35
2022-09-04T16:16:42.340Z,21.58
2022-09-04T16:19:35.482Z,22.13
2022-09-04T16:22:35.119Z,22.50
2022-09-04T16:25:29.155Z,23.48
2022-09-04T16:28:26.410Z,25.13
2022-09-04T16:31:23.205Z,26.05
2022-09-04T16:34:22.960Z,25.70
2022-09-04T16:37:18.638Z,24.33
2022-09-04T16:40:26.205Z,25.92
2022-09-04T16:43:24.237Z,26.17
2022-09-04T16:46:27.439Z,25.90
2022-09-04T16:49:24.169Z,26.75
2022-09-04T16:52:38.886Z,27.00
2022-09-04T16:55:32.313Z,28.13
2022-09-04T16:58:38.451Z,28.65
2022-09-04T17:01:30.085Z,29.23
2022-09-04T17:04:42.696Z,29.40
2022-09-04T17:07:37.694Z,30.02
2022-09-04T17:10:41.539Z,30.10
2022-09-04T17:13:36.977Z,29.55
2022-09-04T17:16:32.655Z,31.00
2022-09-04T17:19:22.025Z,30.98
2022-09-04T17:29:03.038Z,32.53
2022-09-04T17:29:13.593Z,33.88
2022-09-04T17:33:26.698Z,37.22
2022-09-04T17:40:42.936Z,36.10
2022-09-04T17:40:52.365Z,36.70
2022-09-04T17:42:10.361Z,36.42
2022-09-04T17:45:10.333Z,34.83
2022-09-04T17:48:02.382Z,35.38
2022-09-04T17:50:54.455Z,35.03
2022-09-04T17:53:51.686Z,35.10
2022-09-04T17:56:44.899Z,35.22
2022-09-04T17:59:44.928Z,36.15
2022-09-04T18:02:42.271Z,35.55
2022-09-04T18:05:36.959Z,35.42
2022-09-04T18:08:43.571Z,35.80
2022-09-04T18:11:45.927Z,34.50
2022-09-04T18:15:32.897Z,34.58
2022-09-04T18:18:17.886Z,34.70
2022-09-04T18:21:15.220Z,34.08
2022-09-04T18:24:08.183Z,34.08
2022-09-04T18:27:03.089Z,33.38
2022-09-04T18:33:10.495Z,33.22
2022-09-04T18:37:09.521Z,35.15
2022-09-04T18:37:22.649Z,34.65
2022-09-04T18:39:48.633Z,36.13
2022-09-04T18:50:20.205Z,35.72
2022-09-04T18:50:32.099Z,36.95
2022-09-04T18:50:35.603Z,38.50
2022-09-04T18:52:26.713Z,38.28
2022-09-04T18:55:24.749Z,38.03
2022-09-04T18:58:36.913Z,39.17
2022-09-04T19:01:32.666Z,38.92
2022-09-04T19:04:37.190Z,36.20
2022-09-04T19:07:32.007Z,36.88
2022-09-04T19:10:25.778Z,34.85
2022-09-04T19:13:25.470Z,35.85
2022-09-04T19:16:19.871Z,35.08
2022-09-04T19:19:17.168Z,39.63
2022-09-04T19:22:12.943Z,33.03
2022-09-04T19:25:06.558Z,31.48
2022-09-04T19:28:02.838Z,29.45
2022-09-04T19:30:55.848Z,29.33
2022-09-04T19:33:49.262Z,27.33
2022-09-04T19:36:43.908Z,26.50
2022-09-04T19:45:58.957Z,25.88
2022-09-04T19:46:00.907Z,25.73
2022-09-04T19:46:27.853Z,25.20
2022-09-04T19:51:30.875Z,24.38
2022-09-04T19:53:33.499Z,24.30
2022-09-04T19:55:48.782Z,22.90
2022-09-04T19:58:44.159Z,20.10
2022-09-04T20:01:42.319Z,19.13
2022-09-04T20:04:37.239Z,17.77
2022-09-04T20:07:47.639Z,17.45
2022-09-04T20:10:47.774Z,17.35
2022-09-04T20:13:42.909Z,16.92
2022-09-04T20:16:37.617Z,16.50
2022-09-04T20:19:37.502Z,16.02
2022-09-04T20:22:32.003Z,15.05
2022-09-04T20:25:32.050Z,14.82
2022-09-04T20:28:32.119Z,14.70
2022-09-04T20:31:36.585Z,14.75
2022-09-04T20:34:34.999Z,14.25
2022-09-04T20:37:32.819Z,13.93
2022-09-04T20:40:30.030Z,14.70
2022-09-04T20:43:28.182Z,13.13
2022-09-04T20:52:45.032Z,15.90
2022-09-04T20:52:58.240Z,13.55
2022-09-04T20:53:08.622Z,12.88
2022-09-04T20:56:13.354Z,13.00
2022-09-04T21:03:13.651Z,12.57
2022-09-04T21:03:23.361Z,12.32
2022-09-04T21:06:22.779Z,17.85
2022-09-04T21:09:23.345Z,13.40
2022-09-04T21:12:31.603Z,12.20
2022-09-04T21:15:43.659Z,12.48
2022-09-04T21:19:28.759Z,12.38
2022-09-04T21:22:33.230Z,11.85
2022-09-04T21:25:37.355Z,11.80
2022-09-04T21:28:56.664Z,11.73
2022-09-04T21:32:20.482Z,12.23
2022-09-04T21:35:16.942Z,12.32
2022-09-04T21:38:19.960Z,12.50
2022-09-04T21:41:25.278Z,12.40
2022-09-04T21:44:50.509Z,12.77
2022-09-04T21:48:18.338Z,12.45
2022-09-04T21:51:33.417Z,12.68
2022-09-04T21:58:06.682Z,12.13
2022-09-04T22:02:39.479Z,12.00
2022-09-04T22:02:44.605Z,12.05
2022-09-04T22:05:33.649Z,12.23
2022-09-04T22:13:27.176Z,12.10
2022-09-04T22:13:34.391Z,12.60
2022-09-04T22:15:14.278Z,12.27
2022-09-04T22:18:27.969Z,12.63
2022-09-04T22:21:25.958Z,13.05
2022-09-04T22:24:41.226Z,13.55
2022-09-04T22:28:09.053Z,12.98
2022-09-04T22:31:24.548Z,13.02
2022-09-04T22:34:41.650Z,13.00
2022-09-04T22:38:22.552Z,13.20
2022-09-04T22:41:28.480Z,13.85
2022-09-04T22:44:24.361Z,13.82
2022-09-04T22:47:45.250Z,13.85
2022-09-04T22:50:50.048Z,14.38
2022-09-04T22:54:07.932Z,14.40
2022-09-04T22:57:02.328Z,14.30
2022-09-04T23:00:08.382Z,14.27
2022-09-04T23:03:33.074Z,13.97
2022-09-04T23:12:44.489Z,15.50
2022-09-04T23:13:54.632Z,14.90
2022-09-04T23:14:05.255Z,14.53
2022-09-04T23:17:16.121Z,15.50
2022-09-04T23:23:00.030Z,14.83
2022-09-04T23:26:41.672Z,14.77
2022-09-04T23:27:32.385Z,14.70
2022-09-04T23:30:25.762Z,15.53
2022-09-04T23:33:49.482Z,15.27
2022-09-04T23:36:52.030Z,15.63
2022-09-04T23:40:16.095Z,15.13
2022-09-04T23:43:33.825Z,16.03
2022-09-04T23:46:40.645Z,15.33
2022-09-04T23:49:54.523Z,15.67
2022-09-04T23:53:02.053Z,15.97
2022-09-04T23:56:15.470Z,15.70
2022-09-04T23:59:32.506Z,15.60
